sensor_id;sensor_type;location;lat;lon;timestamp;pressure;altitude;pressure_sealevel;temperature;humidity
47913;BME280;33676;51.006;17.180;2024-01-16T00:00:39;98518.77;;;0.02;93.83
47913;BME280;33676;51.006;17.180;2024-01-16T00:03:27;98520.27;;;0.06;93.82
47913;BME280;33676;51.006;17.180;2024-01-16T00:05:56;98516.79;;;0.09;93.79
47913;BME280;33676;51.006;17.180;2024-01-16T00:08:25;98515.46;;;0.11;93.82
47913;BME280;33676;51.006;17.180;2024-01-16T00:10:53;98520.49;;;0.13;93.82
47913;BME280;33676;51.006;17.180;2024-01-16T00:13:22;98522.80;;;0.14;93.83
47913;BME280;33676;51.006;17.180;2024-01-16T00:15:50;98519.60;;;0.16;93.92
47913;BME280;33676;51.006;17.180;2024-01-16T00:18:19;98525.55;;;0.17;93.93
47913;BME280;33676;51.006;17.180;2024-01-16T00:20:48;98531.77;;;0.19;93.87
47913;BME280;33676;51.006;17.180;2024-01-16T00:23:17;98536.14;;;0.21;94.01
47913;BME280;33676;51.006;17.180;2024-01-16T00:25:45;98533.48;;;0.22;94.00
47913;BME280;33676;51.006;17.180;2024-01-16T00:28:14;98538.23;;;0.23;93.95
47913;BME280;33676;51.006;17.180;2024-01-16T00:30:42;98540.27;;;0.23;93.92
47913;BME280;33676;51.006;17.180;2024-01-16T00:33:11;98546.58;;;0.24;93.91
47913;BME280;33676;51.006;17.180;2024-01-16T00:35:41;98552.20;;;0.25;93.97
47913;BME280;33676;51.006;17.180;2024-01-16T00:38:10;98554.30;;;0.24;94.09
47913;BME280;33676;51.006;17.180;2024-01-16T00:40:38;98556.69;;;0.24;94.04
47913;BME280;33676;51.006;17.180;2024-01-16T00:43:07;98563.94;;;0.24;94.08
47913;BME280;33676;51.006;17.180;2024-01-16T00:45:36;98572.39;;;0.24;94.19
47913;BME280;33676;51.006;17.180;2024-01-16T00:48:05;98571.59;;;0.23;94.36
47913;BME280;33676;51.006;17.180;2024-01-16T00:50:34;98568.75;;;0.21;94.57
47913;BME280;33676;51.006;17.180;2024-01-16T00:53:03;98574.27;;;0.21;94.55
47913;BME280;33676;51.006;17.180;2024-01-16T00:55:31;98591.04;;;0.19;94.48
47913;BME280;33676;51.006;17.180;2024-01-16T00:58:00;98624.05;;;0.19;94.77
47913;BME280;33676;51.006;17.180;2024-01-16T01:00:29;98623.02;;;0.11;94.90
47913;BME280;33676;51.006;17.180;2024-01-16T01:02:59;98628.98;;;0.01;94.54
47913;BME280;33676;51.006;17.180;2024-01-16T01:05:28;98634.30;;;-0.08;94.51
47913;BME280;33676;51.006;17.180;2024-01-16T01:07:57;98639.15;;;-0.14;94.52
47913;BME280;33676;51.006;17.180;2024-01-16T01:10:26;98641.91;;;-0.20;94.47
47913;BME280;33676;51.006;17.180;2024-01-16T01:12:55;98647.12;;;-0.23;94.52
47913;BME280;33676;51.006;17.180;2024-01-16T01:15:23;98655.76;;;-0.27;94.78
47913;BME280;33676;51.006;17.180;2024-01-16T01:17:52;98664.23;;;-0.31;94.67
47913;BME280;33676;51.006;17.180;2024-01-16T01:20:21;98667.29;;;-0.34;94.45
47913;BME280;33676;51.006;17.180;2024-01-16T01:22:50;98671.36;;;-0.36;94.69
47913;BME280;33676;51.006;17.180;2024-01-16T01:25:18;98673.83;;;-0.37;94.41
47913;BME280;33676;51.006;17.180;2024-01-16T01:27:47;98674.70;;;-0.37;94.74
47913;BME280;33676;51.006;17.180;2024-01-16T01:30:15;98681.06;;;-0.37;94.77
47913;BME280;33676;51.006;17.180;2024-01-16T01:32:44;98679.70;;;-0.38;94.60
47913;BME280;33676;51.006;17.180;2024-01-16T01:35:12;98680.67;;;-0.37;94.78
47913;BME280;33676;51.006;17.180;2024-01-16T01:37:43;98691.98;;;-0.36;94.60
47913;BME280;33676;51.006;17.180;2024-01-16T01:40:11;98688.09;;;-0.37;94.51
47913;BME280;33676;51.006;17.180;2024-01-16T01:42:44;98688.74;;;-0.37;94.64
47913;BME280;33676;51.006;17.180;2024-01-16T01:45:12;98693.91;;;-0.37;94.60
47913;BME280;33676;51.006;17.180;2024-01-16T01:47:41;98706.97;;;-0.43;94.46
47913;BME280;33676;51.006;17.180;2024-01-16T01:50:12;98711.35;;;-0.56;94.34
47913;BME280;33676;51.006;17.180;2024-01-16T01:52:41;98711.83;;;-0.70;93.87
47913;BME280;33676;51.006;17.180;2024-01-16T01:55:13;98716.61;;;-0.82;93.79
47913;BME280;33676;51.006;17.180;2024-01-16T01:57:42;98735.66;;;-0.91;94.21
47913;BME280;33676;51.006;17.180;2024-01-16T02:00:12;98738.27;;;-0.92;94.93
47913;BME280;33676;51.006;17.180;2024-01-16T02:02:42;98735.81;;;-0.88;95.32
47913;BME280;33676;51.006;17.180;2024-01-16T02:05:11;98726.48;;;-0.84;95.30
47913;BME280;33676;51.006;17.180;2024-01-16T02:07:40;98718.88;;;-0.79;95.59
47913;BME280;33676;51.006;17.180;2024-01-16T02:10:09;98721.20;;;-0.75;95.30
47913;BME280;33676;51.006;17.180;2024-01-16T02:12:37;98722.77;;;-0.72;95.34
47913;BME280;33676;51.006;17.180;2024-01-16T02:15:07;98732.38;;;-0.70;95.27
47913;BME280;33676;51.006;17.180;2024-01-16T02:17:36;98731.09;;;-0.68;95.22
47913;BME280;33676;51.006;17.180;2024-01-16T02:20:05;98741.16;;;-0.67;94.99
47913;BME280;33676;51.006;17.180;2024-01-16T02:22:36;98742.47;;;-0.66;95.02
47913;BME280;33676;51.006;17.180;2024-01-16T02:25:06;98754.83;;;-0.66;94.94
47913;BME280;33676;51.006;17.180;2024-01-16T02:27:35;98760.98;;;-0.65;94.75
47913;BME280;33676;51.006;17.180;2024-01-16T02:30:04;98766.48;;;-0.66;94.71
47913;BME280;33676;51.006;17.180;2024-01-16T02:32:34;98763.23;;;-0.66;94.83
47913;BME280;33676;51.006;17.180;2024-01-16T02:35:03;98759.61;;;-0.66;94.68
47913;BME280;33676;51.006;17.180;2024-01-16T02:37:33;98759.06;;;-0.65;94.50
47913;BME280;33676;51.006;17.180;2024-01-16T02:40:02;98763.96;;;-0.63;94.44
47913;BME280;33676;51.006;17.180;2024-01-16T02:42:34;98771.60;;;-0.62;94.66
47913;BME280;33676;51.006;17.180;2024-01-16T02:45:05;98778.05;;;-0.61;94.53
47913;BME280;33676;51.006;17.180;2024-01-16T02:47:34;98782.59;;;-0.59;94.35
47913;BME280;33676;51.006;17.180;2024-01-16T02:50:03;98783.36;;;-0.58;94.18
47913;BME280;33676;51.006;17.180;2024-01-16T02:52:32;98791.15;;;-0.56;94.30
47913;BME280;33676;51.006;17.180;2024-01-16T02:55:01;98793.13;;;-0.54;94.32
47913;BME280;33676;51.006;17.180;2024-01-16T02:57:29;98796.02;;;-0.54;94.17
47913;BME280;33676;51.006;17.180;2024-01-16T02:59:58;98792.69;;;-0.52;94.18
47913;BME280;33676;51.006;17.180;2024-01-16T03:02:26;98793.61;;;-0.51;94.24
47913;BME280;33676;51.006;17.180;2024-01-16T03:04:55;98801.76;;;-0.50;94.14
47913;BME280;33676;51.006;17.180;2024-01-16T03:07:23;98806.55;;;-0.49;94.13
47913;BME280;33676;51.006;17.180;2024-01-16T03:09:52;98810.98;;;-0.49;94.02
47913;BME280;33676;51.006;17.180;2024-01-16T03:12:20;98814.77;;;-0.49;93.99
47913;BME280;33676;51.006;17.180;2024-01-16T03:14:49;98820.55;;;-0.48;94.13
47913;BME280;33676;51.006;17.180;2024-01-16T03:17:17;98826.70;;;-0.48;94.17
47913;BME280;33676;51.006;17.180;2024-01-16T03:19:46;98826.09;;;-0.46;94.21
47913;BME280;33676;51.006;17.180;2024-01-16T03:22:14;98827.27;;;-0.46;94.11
47913;BME280;33676;51.006;17.180;2024-01-16T03:24:43;98830.49;;;-0.45;94.11
47913;BME280;33676;51.006;17.180;2024-01-16T03:27:12;98832.39;;;-0.45;94.05
47913;BME280;33676;51.006;17.180;2024-01-16T03:29:41;98831.81;;;-0.47;94.12
47913;BME280;33676;51.006;17.180;2024-01-16T03:32:10;98829.98;;;-0.48;94.01
47913;BME280;33676;51.006;17.180;2024-01-16T03:34:38;98830.36;;;-0.48;93.97
47913;BME280;33676;51.006;17.180;2024-01-16T03:37:09;98835.79;;;-0.50;93.99
47913;BME280;33676;51.006;17.180;2024-01-16T03:39:37;98840.36;;;-0.52;93.89
47913;BME280;33676;51.006;17.180;2024-01-16T03:42:06;98842.66;;;-0.59;94.17
47913;BME280;33676;51.006;17.180;2024-01-16T03:44:39;98847.17;;;-0.79;93.42
47913;BME280;33676;51.006;17.180;2024-01-16T03:47:08;98845.66;;;-1.02;93.23
47913;BME280;33676;51.006;17.180;2024-01-16T03:49:36;98844.04;;;-1.19;93.13
47913;BME280;33676;51.006;17.180;2024-01-16T03:52:05;98846.30;;;-1.33;93.61
47913;BME280;33676;51.006;17.180;2024-01-16T03:54:33;98842.67;;;-1.39;94.41
47913;BME280;33676;51.006;17.180;2024-01-16T03:57:02;98842.11;;;-1.35;94.88
47913;BME280;33676;51.006;17.180;2024-01-16T03:59:30;98841.65;;;-1.29;95.45
47913;BME280;33676;51.006;17.180;2024-01-16T04:02:00;98841.17;;;-1.23;95.46
47913;BME280;33676;51.006;17.180;2024-01-16T04:04:29;98836.21;;;-1.17;95.53
47913;BME280;33676;51.006;17.180;2024-01-16T04:06:57;98837.12;;;-1.11;95.77
47913;BME280;33676;51.006;17.180;2024-01-16T04:09:26;98844.56;;;-1.07;95.62
47913;BME280;33676;51.006;17.180;2024-01-16T04:11:54;98846.43;;;-1.03;95.60
47913;BME280;33676;51.006;17.180;2024-01-16T04:14:23;98847.08;;;-0.99;95.66
47913;BME280;33676;51.006;17.180;2024-01-16T04:16:51;98844.69;;;-0.96;95.70
47913;BME280;33676;51.006;17.180;2024-01-16T04:19:20;98833.91;;;-0.94;95.60
47913;BME280;33676;51.006;17.180;2024-01-16T04:21:49;98835.36;;;-0.92;95.71
47913;BME280;33676;51.006;17.180;2024-01-16T04:24:17;98837.73;;;-0.92;95.36
47913;BME280;33676;51.006;17.180;2024-01-16T04:26:46;98837.80;;;-0.90;95.26
47913;BME280;33676;51.006;17.180;2024-01-16T04:29:14;98843.98;;;-0.87;95.51
47913;BME280;33676;51.006;17.180;2024-01-16T04:31:43;98855.92;;;-0.86;95.32
47913;BME280;33676;51.006;17.180;2024-01-16T04:34:11;98864.28;;;-0.84;95.35
47913;BME280;33676;51.006;17.180;2024-01-16T04:36:40;98868.98;;;-0.83;95.29
47913;BME280;33676;51.006;17.180;2024-01-16T04:39:08;98875.77;;;-0.81;95.36
47913;BME280;33676;51.006;17.180;2024-01-16T04:41:37;98875.36;;;-0.80;95.36
47913;BME280;33676;51.006;17.180;2024-01-16T04:44:05;98872.91;;;-0.79;95.35
47913;BME280;33676;51.006;17.180;2024-01-16T04:46:34;98872.90;;;-0.79;95.31
47913;BME280;33676;51.006;17.180;2024-01-16T04:49:03;98867.39;;;-0.79;95.25
47913;BME280;33676;51.006;17.180;2024-01-16T04:51:31;98863.45;;;-0.79;95.15
47913;BME280;33676;51.006;17.180;2024-01-16T04:54:00;98868.00;;;-0.77;95.37
47913;BME280;33676;51.006;17.180;2024-01-16T04:56:28;98869.39;;;-0.75;95.42
47913;BME280;33676;51.006;17.180;2024-01-16T04:58:57;98871.29;;;-0.72;95.46
47913;BME280;33676;51.006;17.180;2024-01-16T05:01:26;98877.98;;;-0.69;95.43
47913;BME280;33676;51.006;17.180;2024-01-16T05:03:54;98880.25;;;-0.66;95.45
47913;BME280;33676;51.006;17.180;2024-01-16T05:06:23;98885.92;;;-0.62;95.54
47913;BME280;33676;51.006;17.180;2024-01-16T05:08:51;98891.92;;;-0.60;95.61
47913;BME280;33676;51.006;17.180;2024-01-16T05:11:20;98890.28;;;-0.58;95.42
47913;BME280;33676;51.006;17.180;2024-01-16T05:13:48;98897.02;;;-0.55;95.51
47913;BME280;33676;51.006;17.180;2024-01-16T05:16:17;98898.19;;;-0.55;95.14
47913;BME280;33676;51.006;17.180;2024-01-16T05:18:45;98893.02;;;-0.55;95.29
47913;BME280;33676;51.006;17.180;2024-01-16T05:21:14;98892.44;;;-0.53;95.45
47913;BME280;33676;51.006;17.180;2024-01-16T05:23:42;98896.48;;;-0.52;95.29
47913;BME280;33676;51.006;17.180;2024-01-16T05:26:11;98896.04;;;-0.50;95.45
47913;BME280;33676;51.006;17.180;2024-01-16T05:28:40;98892.86;;;-0.49;95.34
47913;BME280;33676;51.006;17.180;2024-01-16T05:31:08;98889.85;;;-0.47;95.18
47913;BME280;33676;51.006;17.180;2024-01-16T05:33:37;98893.75;;;-0.47;95.29
47913;BME280;33676;51.006;17.180;2024-01-16T05:36:06;98896.83;;;-0.46;95.14
47913;BME280;33676;51.006;17.180;2024-01-16T05:38:34;98901.36;;;-0.48;95.04
47913;BME280;33676;51.006;17.180;2024-01-16T05:41:04;98900.86;;;-0.48;94.80
47913;BME280;33676;51.006;17.180;2024-01-16T05:43:32;98897.56;;;-0.47;95.07
47913;BME280;33676;51.006;17.180;2024-01-16T05:46:01;98897.30;;;-0.46;95.03
47913;BME280;33676;51.006;17.180;2024-01-16T05:48:29;98900.06;;;-0.46;95.05
47913;BME280;33676;51.006;17.180;2024-01-16T05:50:58;98897.29;;;-0.45;94.85
47913;BME280;33676;51.006;17.180;2024-01-16T05:53:27;98899.45;;;-0.44;95.10
47913;BME280;33676;51.006;17.180;2024-01-16T05:55:55;98902.58;;;-0.42;95.03
47913;BME280;33676;51.006;17.180;2024-01-16T05:58:24;98903.15;;;-0.40;95.25
47913;BME280;33676;51.006;17.180;2024-01-16T06:00:53;98910.44;;;-0.38;94.96
47913;BME280;33676;51.006;17.180;2024-01-16T06:03:22;98911.23;;;-0.37;94.93
47913;BME280;33676;51.006;17.180;2024-01-16T06:05:50;98918.92;;;-0.36;94.85
47913;BME280;33676;51.006;17.180;2024-01-16T06:08:19;98922.50;;;-0.36;95.21
47913;BME280;33676;51.006;17.180;2024-01-16T06:10:48;98920.97;;;-0.33;95.23
47913;BME280;33676;51.006;17.180;2024-01-16T06:13:18;98922.77;;;-0.31;95.47
47913;BME280;33676;51.006;17.180;2024-01-16T06:15:47;98924.80;;;-0.27;95.50
47913;BME280;33676;51.006;17.180;2024-01-16T06:18:15;98924.27;;;-0.24;95.60
47913;BME280;33676;51.006;17.180;2024-01-16T06:20:44;98923.58;;;-0.21;95.75
47913;BME280;33676;51.006;17.180;2024-01-16T06:23:12;98925.67;;;-0.16;95.85
47913;BME280;33676;51.006;17.180;2024-01-16T06:25:41;98924.23;;;-0.11;96.03
47913;BME280;33676;51.006;17.180;2024-01-16T06:28:09;98924.08;;;-0.08;96.13
47913;BME280;33676;51.006;17.180;2024-01-16T06:30:37;98933.31;;;-0.05;96.32
47913;BME280;33676;51.006;17.180;2024-01-16T06:33:06;98939.84;;;-0.02;96.25
47913;BME280;33676;51.006;17.180;2024-01-16T06:35:35;98954.83;;;0.00;96.27
47913;BME280;33676;51.006;17.180;2024-01-16T06:38:03;98967.65;;;0.02;96.29
47913;BME280;33676;51.006;17.180;2024-01-16T06:40:32;98980.06;;;0.01;96.18
47913;BME280;33676;51.006;17.180;2024-01-16T06:43:00;98992.77;;;-0.02;96.12
47913;BME280;33676;51.006;17.180;2024-01-16T06:45:29;98991.92;;;-0.09;95.80
47913;BME280;33676;51.006;17.180;2024-01-16T06:47:57;98995.02;;;-0.11;95.75
47913;BME280;33676;51.006;17.180;2024-01-16T06:50:26;98998.65;;;-0.12;95.70
47913;BME280;33676;51.006;17.180;2024-01-16T06:52:54;98998.36;;;-0.13;95.48
47913;BME280;33676;51.006;17.180;2024-01-16T06:55:22;98999.27;;;-0.14;95.29
47913;BME280;33676;51.006;17.180;2024-01-16T06:57:51;99002.16;;;-0.33;94.35
47913;BME280;33676;51.006;17.180;2024-01-16T07:00:19;99018.59;;;-0.60;93.11
47913;BME280;33676;51.006;17.180;2024-01-16T07:02:49;99024.45;;;-0.94;92.27
47913;BME280;33676;51.006;17.180;2024-01-16T07:05:20;99028.23;;;-1.20;92.43
47913;BME280;33676;51.006;17.180;2024-01-16T07:07:49;99042.33;;;-1.39;93.14
47913;BME280;33676;51.006;17.180;2024-01-16T07:10:18;99043.67;;;-1.49;94.19
47913;BME280;33676;51.006;17.180;2024-01-16T07:12:47;99045.70;;;-1.55;94.74
47913;BME280;33676;51.006;17.180;2024-01-16T07:15:17;99049.41;;;-1.60;95.42
47913;BME280;33676;51.006;17.180;2024-01-16T07:17:46;99052.15;;;-1.64;95.80
47913;BME280;33676;51.006;17.180;2024-01-16T07:20:15;99055.89;;;-1.67;96.16
47913;BME280;33676;51.006;17.180;2024-01-16T07:22:44;99062.39;;;-1.70;96.57
47913;BME280;33676;51.006;17.180;2024-01-16T07:25:12;99074.63;;;-1.72;96.86
47913;BME280;33676;51.006;17.180;2024-01-16T07:27:40;99082.75;;;-1.74;97.25
47913;BME280;33676;51.006;17.180;2024-01-16T07:30:11;99087.05;;;-1.74;97.73
47913;BME280;33676;51.006;17.180;2024-01-16T07:32:40;99091.55;;;-1.64;98.75
47913;BME280;33676;51.006;17.180;2024-01-16T07:35:09;99099.39;;;-1.53;98.77
47913;BME280;33676;51.006;17.180;2024-01-16T07:37:38;99105.52;;;-1.41;98.81
47913;BME280;33676;51.006;17.180;2024-01-16T07:40:07;99107.73;;;-1.30;98.72
47913;BME280;33676;51.006;17.180;2024-01-16T07:42:37;99110.63;;;-1.19;98.60
47913;BME280;33676;51.006;17.180;2024-01-16T07:45:07;99116.00;;;-1.10;98.41
47913;BME280;33676;51.006;17.180;2024-01-16T07:47:36;99119.13;;;-1.01;98.35
47913;BME280;33676;51.006;17.180;2024-01-16T07:50:05;99124.30;;;-0.91;98.17
47913;BME280;33676;51.006;17.180;2024-01-16T07:52:36;99123.73;;;-0.80;98.04
47913;BME280;33676;51.006;17.180;2024-01-16T07:55:06;99127.50;;;-0.69;98.19
47913;BME280;33676;51.006;17.180;2024-01-16T07:57:34;99131.10;;;-0.58;98.35
47913;BME280;33676;51.006;17.180;2024-01-16T08:00:03;99129.75;;;-0.66;96.98
47913;BME280;33676;51.006;17.180;2024-01-16T08:02:34;99138.70;;;-0.84;95.28
47913;BME280;33676;51.006;17.180;2024-01-16T08:05:04;99135.89;;;-1.00;94.85
47913;BME280;33676;51.006;17.180;2024-01-16T08:07:34;99140.44;;;-1.08;95.05
47913;BME280;33676;51.006;17.180;2024-01-16T08:10:03;99148.80;;;-1.14;95.50
47913;BME280;33676;51.006;17.180;2024-01-16T08:12:32;99151.29;;;-1.20;96.15
47913;BME280;33676;51.006;17.180;2024-01-16T08:15:00;99156.52;;;-1.11;97.50
47913;BME280;33676;51.006;17.180;2024-01-16T08:17:33;99157.15;;;-1.00;98.24
47913;BME280;33676;51.006;17.180;2024-01-16T08:20:11;99163.17;;;-0.86;98.64
47913;BME280;33676;51.006;17.180;2024-01-16T08:22:40;99167.63;;;-0.72;98.61
47913;BME280;33676;51.006;17.180;2024-01-16T08:25:08;99173.48;;;-0.58;98.76
47913;BME280;33676;51.006;17.180;2024-01-16T08:27:37;99176.48;;;-0.44;98.56
47913;BME280;33676;51.006;17.180;2024-01-16T08:30:08;99178.93;;;-0.28;98.67
47913;BME280;33676;51.006;17.180;2024-01-16T08:32:37;99183.65;;;-0.09;98.56
47913;BME280;33676;51.006;17.180;2024-01-16T08:35:07;99185.48;;;0.11;98.46
47913;BME280;33676;51.006;17.180;2024-01-16T08:37:37;99191.08;;;0.22;97.85
47913;BME280;33676;51.006;17.180;2024-01-16T08:40:06;99192.58;;;0.29;97.37
47913;BME280;33676;51.006;17.180;2024-01-16T08:42:35;99196.48;;;0.21;96.11
47913;BME280;33676;51.006;17.180;2024-01-16T08:45:07;99203.29;;;-0.07;93.99
47913;BME280;33676;51.006;17.180;2024-01-16T08:47:37;99204.86;;;-0.38;93.24
47913;BME280;33676;51.006;17.180;2024-01-16T08:50:08;99209.34;;;-0.62;93.45
47913;BME280;33676;51.006;17.180;2024-01-16T08:52:38;99208.34;;;-0.80;93.59
47913;BME280;33676;51.006;17.180;2024-01-16T08:55:08;99218.14;;;-0.87;94.81
47913;BME280;33676;51.006;17.180;2024-01-16T08:57:38;99216.90;;;-0.83;95.97
47913;BME280;33676;51.006;17.180;2024-01-16T09:00:07;99221.80;;;-0.75;96.74
47913;BME280;33676;51.006;17.180;2024-01-16T09:02:37;99224.89;;;-0.64;96.99
47913;BME280;33676;51.006;17.180;2024-01-16T09:05:07;99226.61;;;-0.50;97.25
47913;BME280;33676;51.006;17.180;2024-01-16T09:07:35;99226.73;;;-0.36;97.54
47913;BME280;33676;51.006;17.180;2024-01-16T09:10:04;99227.57;;;-0.19;97.59
47913;BME280;33676;51.006;17.180;2024-01-16T09:15:38;99231.54;;;0.21;97.51
47913;BME280;33676;51.006;17.180;2024-01-16T09:18:08;99227.75;;;0.37;97.59
47913;BME280;33676;51.006;17.180;2024-01-16T09:20:36;99225.70;;;0.59;97.72
47913;BME280;33676;51.006;17.180;2024-01-16T09:23:05;99224.59;;;0.73;97.65
47913;BME280;33676;51.006;17.180;2024-01-16T09:25:35;99221.41;;;0.87;97.90
47913;BME280;33676;51.006;17.180;2024-01-16T09:28:04;99231.70;;;1.00;98.07
47913;BME280;33676;51.006;17.180;2024-01-16T09:30:33;99236.83;;;0.88;95.76
47913;BME280;33676;51.006;17.180;2024-01-16T09:33:02;99240.91;;;0.51;93.02
47913;BME280;33676;51.006;17.180;2024-01-16T09:35:33;99248.64;;;0.12;91.93
47913;BME280;33676;51.006;17.180;2024-01-16T09:38:01;99250.54;;;-0.21;91.83
47913;BME280;33676;51.006;17.180;2024-01-16T09:40:30;99251.30;;;-0.46;92.34
47913;BME280;33676;51.006;17.180;2024-01-16T09:42:59;99250.77;;;-0.56;94.11
47913;BME280;33676;51.006;17.180;2024-01-16T09:45:29;99255.17;;;-0.49;95.66
47913;BME280;33676;51.006;17.180;2024-01-16T09:47:59;99257.59;;;-0.35;96.76
47913;BME280;33676;51.006;17.180;2024-01-16T09:50:29;99261.77;;;-0.19;97.03
47913;BME280;33676;51.006;17.180;2024-01-16T09:52:57;99261.10;;;-0.03;97.50
47913;BME280;33676;51.006;17.180;2024-01-16T09:55:27;99262.61;;;0.15;97.93
47913;BME280;33676;51.006;17.180;2024-01-16T09:57:57;99262.87;;;0.29;97.93
47913;BME280;33676;51.006;17.180;2024-01-16T10:00:25;99251.17;;;0.46;98.14
47913;BME280;33676;51.006;17.180;2024-01-16T10:02:56;99252.72;;;0.68;98.27
47913;BME280;33676;51.006;17.180;2024-01-16T10:05:30;99251.36;;;0.93;98.47
47913;BME280;33676;51.006;17.180;2024-01-16T10:07:59;99256.34;;;1.18;98.86
47913;BME280;33676;51.006;17.180;2024-01-16T10:10:28;99257.90;;;1.36;98.70
47913;BME280;33676;51.006;17.180;2024-01-16T10:13:29;99259.61;;;1.51;98.38
47913;BME280;33676;51.006;17.180;2024-01-16T10:15:57;99263.20;;;1.60;98.36
47913;BME280;33676;51.006;17.180;2024-01-16T10:18:29;99263.45;;;1.41;95.62
47913;BME280;33676;51.006;17.180;2024-01-16T10:21:02;99267.39;;;0.93;92.44
47913;BME280;33676;51.006;17.180;2024-01-16T10:23:32;99271.45;;;0.49;91.50
47913;BME280;33676;51.006;17.180;2024-01-16T10:26:12;99285.38;;;0.13;91.76
47913;BME280;33676;51.006;17.180;2024-01-16T10:28:43;99291.33;;;-0.12;92.33
47913;BME280;33676;51.006;17.180;2024-01-16T10:31:13;99290.91;;;-0.11;94.30
47913;BME280;33676;51.006;17.180;2024-01-16T10:33:45;99288.61;;;0.10;96.08
47913;BME280;33676;51.006;17.180;2024-01-16T10:36:17;99289.24;;;0.31;97.01
47913;BME280;33676;51.006;17.180;2024-01-16T10:38:47;99292.54;;;0.53;97.74
47913;BME280;33676;51.006;17.180;2024-01-16T10:41:17;99291.13;;;0.73;97.88
47913;BME280;33676;51.006;17.180;2024-01-16T10:43:47;99288.23;;;0.92;98.02
47913;BME280;33676;51.006;17.180;2024-01-16T10:46:17;99280.84;;;1.07;97.94
47913;BME280;33676;51.006;17.180;2024-01-16T10:49:00;99284.16;;;1.22;98.28
47913;BME280;33676;51.006;17.180;2024-01-16T10:51:31;99284.86;;;1.31;97.71
47913;BME280;33676;51.006;17.180;2024-01-16T10:54:03;99284.53;;;1.33;97.25
47913;BME280;33676;51.006;17.180;2024-01-16T10:56:36;99289.28;;;1.38;97.19
47913;BME280;33676;51.006;17.180;2024-01-16T10:59:31;99294.78;;;1.42;97.13
47913;BME280;33676;51.006;17.180;2024-01-16T11:01:59;99295.89;;;1.40;96.88
47913;BME280;33676;51.006;17.180;2024-01-16T11:04:30;99302.42;;;1.41;97.00
47913;BME280;33676;51.006;17.180;2024-01-16T11:07:00;99300.71;;;1.37;96.55
47913;BME280;33676;51.006;17.180;2024-01-16T11:09:29;99301.63;;;1.33;96.35
47913;BME280;33676;51.006;17.180;2024-01-16T11:11:57;99306.12;;;1.32;96.46
47913;BME280;33676;51.006;17.180;2024-01-16T11:14:28;99310.39;;;1.33;96.16
47913;BME280;33676;51.006;17.180;2024-01-16T11:16:59;99309.64;;;1.38;96.36
47913;BME280;33676;51.006;17.180;2024-01-16T11:19:31;99307.14;;;1.48;96.72
47913;BME280;33676;51.006;17.180;2024-01-16T11:23:18;99303.77;;;1.77;97.19
47913;BME280;33676;51.006;17.180;2024-01-16T11:25:47;99302.54;;;1.95;97.40
47913;BME280;33676;51.006;17.180;2024-01-16T11:28:15;99308.62;;;2.14;97.27
47913;BME280;33676;51.006;17.180;2024-01-16T11:30:44;99309.97;;;2.29;97.14
47913;BME280;33676;51.006;17.180;2024-01-16T11:36:52;99311.85;;;2.64;97.82
47913;BME280;33676;51.006;17.180;2024-01-16T11:39:25;99318.77;;;2.72;97.15
47913;BME280;33676;51.006;17.180;2024-01-16T11:41:56;99321.54;;;2.23;92.54
47913;BME280;33676;51.006;17.180;2024-01-16T11:44:49;99322.49;;;1.63;90.02
47913;BME280;33676;51.006;17.180;2024-01-16T11:47:23;99328.76;;;1.03;89.56
47913;BME280;33676;51.006;17.180;2024-01-16T11:50:27;99327.17;;;0.78;91.03
47913;BME280;33676;51.006;17.180;2024-01-16T11:52:56;99329.55;;;0.89;93.45
47913;BME280;33676;51.006;17.180;2024-01-16T11:56:06;99331.30;;;1.07;94.78
47913;BME280;33676;51.006;17.180;2024-01-16T12:00:03;99335.60;;;1.32;95.31
47913;BME280;33676;51.006;17.180;2024-01-16T12:05:13;99333.86;;;1.59;95.36
47913;BME280;33676;51.006;17.180;2024-01-16T12:10:23;99331.07;;;1.63;95.12
47913;BME280;33676;51.006;17.180;2024-01-16T12:13:00;99339.27;;;1.64;95.52
47913;BME280;33676;51.006;17.180;2024-01-16T12:15:32;99342.80;;;1.69;95.66
47913;BME280;33676;51.006;17.180;2024-01-16T12:18:02;99344.61;;;1.67;95.32
47913;BME280;33676;51.006;17.180;2024-01-16T12:20:36;99343.50;;;1.62;95.13
47913;BME280;33676;51.006;17.180;2024-01-16T12:23:07;99342.45;;;1.60;95.38
47913;BME280;33676;51.006;17.180;2024-01-16T12:25:37;99348.91;;;1.58;95.13
47913;BME280;33676;51.006;17.180;2024-01-16T12:28:38;99360.35;;;1.51;94.63
47913;BME280;33676;51.006;17.180;2024-01-16T12:31:06;99359.42;;;1.50;94.85
47913;BME280;33676;51.006;17.180;2024-01-16T12:33:35;99359.89;;;1.53;95.06
47913;BME280;33676;51.006;17.180;2024-01-16T12:36:06;99360.73;;;1.38;93.55
47913;BME280;33676;51.006;17.180;2024-01-16T12:38:36;99370.22;;;1.00;91.38
47913;BME280;33676;51.006;17.180;2024-01-16T12:41:10;99377.13;;;0.57;90.88
47913;BME280;33676;51.006;17.180;2024-01-16T12:43:40;99376.58;;;0.24;90.75
47913;BME280;33676;51.006;17.180;2024-01-16T12:46:11;99372.86;;;0.09;92.25
47913;BME280;33676;51.006;17.180;2024-01-16T12:48:40;99374.13;;;0.18;94.08
47913;BME280;33676;51.006;17.180;2024-01-16T12:51:21;99373.35;;;0.37;95.40
47913;BME280;33676;51.006;17.180;2024-01-16T12:53:51;99375.54;;;0.58;96.25
47913;BME280;33676;51.006;17.180;2024-01-16T12:56:20;99369.60;;;0.82;96.99
47913;BME280;33676;51.006;17.180;2024-01-16T12:59:27;99368.16;;;1.15;97.50
47913;BME280;33676;51.006;17.180;2024-01-16T13:01:58;99376.61;;;1.37;97.59
47913;BME280;33676;51.006;17.180;2024-01-16T13:04:26;99384.05;;;1.56;97.39
47913;BME280;33676;51.006;17.180;2024-01-16T13:07:04;99389.41;;;1.64;97.35
47913;BME280;33676;51.006;17.180;2024-01-16T13:09:34;99388.43;;;1.72;97.01
47913;BME280;33676;51.006;17.180;2024-01-16T13:12:03;99385.19;;;1.78;96.58
47913;BME280;33676;51.006;17.180;2024-01-16T13:14:32;99394.96;;;1.82;96.57
47913;BME280;33676;51.006;17.180;2024-01-16T13:17:02;99391.41;;;1.87;96.23
47913;BME280;33676;51.006;17.180;2024-01-16T13:19:31;99388.34;;;1.89;96.28
47913;BME280;33676;51.006;17.180;2024-01-16T13:22:02;99389.23;;;1.92;96.04